Time;durP1;ratioP1;P1;durP2;ratioP2;P2;SDS_P1;SDS_P2;PMS_P1;PMS_P2;Temp;Humidity;BMP_temperature;BMP_pressure;BME280_temperature;BME280_humidity;BME280_pressure;Samples;Min_cycle;Max_cycle;Signal;HPM_P1;HPM_P2
2021/12/30 00:01:40;;;;;;;7.20;3.30;;;;;;;4.63;68.42;93235.44;5025200;28;20045;-75
2021/12/30 00:04:06;;;;;;;4.43;2.22;;;;;;;4.68;68.45;93237.22;5018826;28;20509;-74
2021/12/30 00:06:38;;;;;;;2.85;2.55;;;;;;;4.71;68.01;93241.88;5022232;28;20083;-74
2021/12/30 00:09:05;;;;;;;4.90;2.75;;;;;;;4.72;68.33;93238.19;5018599;28;20049;-74
2021/12/30 00:11:30;;;;;;;8.50;3.58;;;;;;;4.73;68.25;93233.69;5015848;28;20060;-75
2021/12/30 00:13:56;;;;;;;5.43;3.53;;;;;;;4.64;68.25;93230.97;5015581;28;20648;-74
2021/12/30 00:16:21;;;;;;;4.32;2.42;;;;;;;4.59;69.27;93228.41;5005858;28;20037;-74
2021/12/30 00:18:47;;;;;;;3.90;3.15;;;;;;;4.80;68.47;93242.78;5025072;28;20041;-75
2021/12/30 00:21:13;;;;;;;2.47;2.20;;;;;;;4.75;68.08;93231.56;5022675;28;20548;-74
2021/12/30 00:23:39;;;;;;;4.70;2.65;;;;;;;4.65;68.25;93249.09;5020928;28;21449;-74
2021/12/30 00:26:06;;;;;;;2.40;1.98;;;;;;;4.48;68.31;93240.19;5016288;28;20033;-74
2021/12/30 00:28:32;;;;;;;2.30;1.77;;;;;;;4.45;68.77;93248.66;5018097;28;20044;-74
2021/12/30 00:30:57;;;;;;;5.97;2.58;;;;;;;4.38;68.91;93238.50;5020430;28;20038;-75
2021/12/30 00:33:23;;;;;;;3.47;2.83;;;;;;;4.15;69.95;93253.31;5020170;28;20047;-74
2021/12/30 00:35:49;;;;;;;3.78;2.20;;;;;;;4.01;70.34;93228.78;5024340;28;20035;-76
2021/12/30 00:38:16;;;;;;;3.83;2.13;;;;;;;4.25;70.29;93255.78;5019878;28;20043;-74
2021/12/30 00:40:43;;;;;;;3.53;2.47;;;;;;;4.18;70.42;93254.56;5000937;28;20098;-75
2021/12/30 00:43:08;;;;;;;2.42;1.88;;;;;;;4.20;70.33;93257.72;5024613;28;20040;-75
2021/12/30 00:45:35;;;;;;;2.28;1.85;;;;;;;4.32;70.19;93265.19;5018734;28;20068;-75
2021/12/30 00:48:02;;;;;;;3.00;2.08;;;;;;;4.21;69.90;93261.88;5014646;28;20099;-74
2021/12/30 00:50:28;;;;;;;2.47;2.05;;;;;;;4.18;69.92;93242.19;5022223;28;20132;-75
2021/12/30 00:52:54;;;;;;;3.20;2.25;;;;;;;4.46;69.66;93260.72;5018879;28;20063;-74
2021/12/30 00:55:20;;;;;;;2.75;1.70;;;;;;;4.37;68.98;93238.78;5020384;28;20072;-75
2021/12/30 00:57:46;;;;;;;2.05;1.75;;;;;;;4.45;69.12;93264.47;5021739;28;20585;-75
2021/12/30 01:00:15;;;;;;;2.33;1.75;;;;;;;4.51;69.30;93260.66;5020913;28;20037;-74
2021/12/30 01:02:40;;;;;;;1.75;1.50;;;;;;;4.48;69.52;93269.94;5016264;28;20029;-74
2021/12/30 01:05:07;;;;;;;1.98;1.58;;;;;;;4.45;69.36;93262.63;5022752;28;20594;-75
2021/12/30 01:07:33;;;;;;;2.85;2.03;;;;;;;4.61;68.69;93276.28;5022138;28;20057;-75
2021/12/30 01:09:59;;;;;;;2.60;1.75;;;;;;;4.34;68.61;93257.78;5009762;28;20408;-74
2021/12/30 01:12:25;;;;;;;2.17;1.35;;;;;;;4.15;69.28;93255.16;5023652;28;20489;-74
2021/12/30 01:14:51;;;;;;;1.88;1.58;;;;;;;4.13;70.10;93263.31;5019467;28;20185;-73
2021/12/30 01:17:26;;;;;;;2.03;1.77;;;;;;;4.13;69.82;93273.84;5019482;28;20084;-75
2021/12/30 01:19:52;;;;;;;;;;;;;;;4.11;69.91;93278.59;5016949;28;20124;-74
2021/12/30 01:22:24;;;;;;;2.97;1.75;;;;;;;4.07;70.31;93264.47;5018775;28;20119;-74
2021/12/30 01:24:51;;;;;;;2.60;2.03;;;;;;;4.05;70.66;93292.91;5021908;28;20301;-74
2021/12/30 01:27:18;;;;;;;1.63;1.30;;;;;;;4.05;70.42;93287.66;5014249;28;20321;-74
2021/12/30 01:29:44;;;;;;;1.40;1.20;;;;;;;3.77;70.47;93263.03;5006575;28;20603;-74
2021/12/30 01:32:09;;;;;;;1.50;1.40;;;;;;;3.79;71.06;93281.16;5018382;28;20049;-74
2021/12/30 01:34:36;;;;;;;1.83;1.48;;;;;;;3.83;71.71;93292.69;5018594;28;20057;-74
2021/12/30 01:37:04;;;;;;;2.83;1.38;;;;;;;3.90;71.66;93287.88;5020359;28;20045;-74
2021/12/30 01:39:32;;;;;;;3.28;1.80;;;;;;;3.98;71.22;93291.69;5006859;28;20056;-75
2021/12/30 01:41:59;;;;;;;2.05;1.40;;;;;;;3.99;70.82;93291.41;5018018;28;20099;-73
2021/12/30 01:44:24;;;;;;;1.70;1.33;;;;;;;4.11;71.32;93297.03;5026365;28;20114;-75
2021/12/30 01:46:51;;;;;;;1.50;1.40;;;;;;;4.24;70.60;93290.28;5019551;28;20523;-75
2021/12/30 01:49:16;;;;;;;1.88;1.73;;;;;;;4.28;69.78;93271.00;5018367;28;20029;-75
2021/12/30 01:51:43;;;;;;;1.88;1.30;;;;;;;4.34;69.75;93274.38;5020696;28;20459;-75
2021/12/30 01:54:10;;;;;;;1.40;1.30;;;;;;;4.48;68.83;93284.94;5017101;28;20074;-74
2021/12/30 01:56:35;;;;;;;2.28;1.55;;;;;;;4.46;68.50;93292.34;5019874;28;20094;-74
2021/12/30 01:59:03;;;;;;;1.67;1.52;;;;;;;4.11;69.07;93262.81;5019220;28;20172;-74
2021/12/30 02:01:28;;;;;;;3.30;1.48;;;;;;;4.22;69.59;93295.03;5013779;28;20087;-74
2021/12/30 02:03:54;;;;;;;1.40;1.23;;;;;;;4.19;69.80;93277.19;5005425;28;20049;-74
2021/12/30 02:06:20;;;;;;;1.30;1.20;;;;;;;4.41;69.50;93297.69;5001550;28;20037;-74
2021/12/30 02:08:45;;;;;;;1.35;1.25;;;;;;;4.50;69.01;93298.63;5020628;28;20345;-74
2021/12/30 02:11:11;;;;;;;1.83;1.52;;;;;;;4.47;68.39;93294.69;5020091;28;20469;-75
2021/12/30 02:13:38;;;;;;;2.10;1.55;;;;;;;4.39;68.70;93291.94;5014444;28;20517;-73
2021/12/30 02:16:04;;;;;;;1.40;1.30;;;;;;;4.31;68.87;93267.03;5020360;28;20049;-75
2021/12/30 02:18:30;;;;;;;1.52;1.40;;;;;;;4.55;68.52;93301.91;5022609;28;20460;-75
2021/12/30 02:20:59;;;;;;;2.03;1.48;;;;;;;4.35;68.57;93275.16;5019049;28;20025;-75
2021/12/30 02:23:25;;;;;;;1.85;1.75;;;;;;;4.46;68.75;93297.59;5021744;28;20144;-74
2021/12/30 02:25:57;;;;;;;1.55;1.45;;;;;;;4.42;68.88;93301.88;5002990;28;20037;-75
2021/12/30 02:28:25;;;;;;;1.85;1.27;;;;;;;4.36;68.96;93303.00;5016992;28;20136;-75
2021/12/30 02:30:54;;;;;;;1.52;1.23;;;;;;;4.45;69.07;93303.97;5024542;28;20186;-75
2021/12/30 02:33:20;;;;;;;1.55;1.42;;;;;;;4.32;69.82;93307.28;5012341;28;20449;-74
2021/12/30 02:35:45;;;;;;;2.22;1.42;;;;;;;4.42;69.31;93296.63;5021723;28;20431;-75
2021/12/30 02:38:12;;;;;;;1.67;1.20;;;;;;;4.44;69.19;93310.28;5007163;28;20400;-74
2021/12/30 02:40:43;;;;;;;2.40;1.50;;;;;;;4.27;69.08;93311.53;5021055;28;20041;-75
2021/12/30 02:43:16;;;;;;;2.83;1.33;;;;;;;4.24;69.59;93306.84;5023292;28;20040;-73
2021/12/30 02:45:42;;;;;;;1.40;1.20;;;;;;;3.97;69.85;93277.75;5024112;28;20205;-74
2021/12/30 02:48:17;;;;;;;1.60;1.50;;;;;;;4.22;69.86;93301.09;5023401;28;20048;-72
2021/12/30 02:50:43;;;;;;;;;;;;;;;4.34;69.48;93316.47;5015812;28;20111;-75
2021/12/30 02:53:11;;;;;;;2.65;1.48;;;;;;;4.16;69.47;93304.84;5018696;28;20331;-75
2021/12/30 02:55:37;;;;;;;2.35;1.75;;;;;;;4.17;70.48;93332.75;5022977;28;20767;-75
2021/12/30 02:58:02;;;;;;;1.15;1.05;;;;;;;4.20;69.96;93326.13;5023872;28;20071;-75
2021/12/30 03:00:29;;;;;;;1.60;1.48;;;;;;;4.23;69.96;93321.06;5020739;28;20448;-75
2021/12/30 03:02:54;;;;;;;2.28;1.50;;;;;;;4.42;69.56;93336.09;5022914;28;20063;-75
2021/12/30 03:05:21;;;;;;;2.15;1.73;;;;;;;4.42;69.39;93333.47;5008865;28;20127;-75
2021/12/30 03:07:46;;;;;;;2.70;1.98;;;;;;;4.32;69.13;93320.47;5028567;28;20051;-76
2021/12/30 03:10:16;;;;;;;1.95;1.40;;;;;;;4.42;69.34;93338.75;5016780;28;20037;-74
2021/12/30 03:12:42;;;;;;;1.48;1.25;;;;;;;4.42;69.54;93344.00;5023644;28;20091;-76
2021/12/30 03:15:11;;;;;;;1.63;1.52;;;;;;;4.48;68.79;93332.34;5024914;28;20025;-75
2021/12/30 03:17:40;;;;;;;2.28;1.77;;;;;;;4.53;68.82;93342.78;5010708;28;20041;-75
2021/12/30 03:20:09;;;;;;;2.17;1.60;;;;;;;4.55;68.46;93351.22;5016677;28;20643;-75
2021/12/30 03:22:39;;;;;;;1.90;1.50;;;;;;;4.46;68.50;93340.50;5026181;28;20559;-76
2021/12/30 03:25:10;;;;;;;3.50;1.90;;;;;;;4.36;68.54;93339.88;5001489;28;20037;-75
2021/12/30 03:27:36;;;;;;;1.95;1.75;;;;;;;4.33;68.49;93340.44;5028008;28;20063;-75
2021/12/30 03:30:05;;;;;;;2.38;1.63;;;;;;;4.36;68.77;93360.94;5023753;28;20421;-75
2021/12/30 03:32:31;;;;;;;2.20;1.60;;;;;;;4.13;69.16;93331.75;5025077;28;20052;-75
2021/12/30 03:34:56;;;;;;;1.98;1.80;;;;;;;4.44;69.09;93363.72;5009701;28;20040;-75
2021/12/30 03:37:22;;;;;;;3.03;1.38;;;;;;;4.38;68.81;93353.53;5021367;28;20051;-75
2021/12/30 03:39:48;;;;;;;1.98;1.75;;;;;;;4.26;68.89;93361.84;5026676;28;20041;-75
2021/12/30 03:42:15;;;;;;;1.80;1.70;;;;;;;4.14;69.54;93364.91;5017728;28;20489;-73
2021/12/30 03:44:41;;;;;;;3.53;2.30;;;;;;;3.91;70.09;93355.22;5027454;28;20032;-75
2021/12/30 03:47:07;;;;;;;4.45;2.17;;;;;;;3.98;70.37;93360.09;5021899;28;20091;-75
2021/12/30 03:49:33;;;;;;;1.92;1.70;;;;;;;3.85;70.84;93364.22;5022061;28;20037;-74
2021/12/30 03:51:58;;;;;;;2.75;2.20;;;;;;;3.93;71.33;93360.94;5011100;28;20629;-76
2021/12/30 03:54:24;;;;;;;2.35;1.92;;;;;;;4.04;71.07;93358.97;5016836;28;20103;-75
2021/12/30 03:56:50;;;;;;;2.28;2.08;;;;;;;4.07;69.68;93351.28;5018866;28;20469;-74
2021/12/30 03:59:15;;;;;;;2.40;2.08;;;;;;;4.10;70.01;93374.44;5023401;28;20069;-76
2021/12/30 04:01:41;;;;;;;2.80;2.00;;;;;;;4.01;70.30;93383.25;5024420;28;20059;-74
2021/12/30 04:04:06;;;;;;;1.98;1.70;;;;;;;3.72;70.46;93362.28;5024119;28;20076;-75
2021/12/30 04:06:32;;;;;;;2.28;2.03;;;;;;;3.83;71.02;93393.44;5025934;28;20040;-74
2021/12/30 04:08:58;;;;;;;2.90;2.10;;;;;;;3.83;71.10;93395.28;5017205;28;20061;-75
2021/12/30 04:11:34;;;;;;;2.88;2.00;;;;;;;3.89;71.12;93396.00;5027719;28;20041;-75
2021/12/30 04:13:59;;;;;;;;;;;;;;;4.07;70.59;93405.78;5020663;28;20065;-74
2021/12/30 04:16:25;;;;;;;2.30;2.10;;;;;;;3.94;70.62;93401.19;5018728;28;20464;-75
2021/12/30 04:18:50;;;;;;;2.70;1.85;;;;;;;3.94;70.78;93402.00;5027890;28;20519;-75
2021/12/30 04:21:20;;;;;;;2.17;1.98;;;;;;;4.22;69.73;93406.38;5020367;28;20429;-75
2021/12/30 04:23:46;;;;;;;3.40;2.40;;;;;;;4.22;69.28;93382.69;5013278;28;20098;-76
2021/12/30 04:26:11;;;;;;;3.40;2.10;;;;;;;4.44;69.05;93426.13;5019612;28;20500;-75
2021/12/30 04:28:38;;;;;;;2.13;1.77;;;;;;;4.48;68.85;93429.78;5019160;28;20513;-75
2021/12/30 04:31:04;;;;;;;3.40;2.17;;;;;;;4.44;68.74;93431.41;5025399;28;20041;-75
2021/12/30 04:33:29;;;;;;;1.70;1.60;;;;;;;4.63;68.38;93438.25;5022059;28;20519;-75
2021/12/30 04:35:56;;;;;;;2.70;1.90;;;;;;;4.60;67.89;93441.44;5014085;28;20032;-73
2021/12/30 04:38:26;;;;;;;2.03;1.88;;;;;;;4.53;67.66;93419.16;5022520;28;20136;-75
2021/12/30 04:40:52;;;;;;;3.50;2.40;;;;;;;4.61;67.36;93444.84;5012101;28;20438;-75
2021/12/30 04:43:18;;;;;;;2.97;1.88;;;;;;;4.63;66.88;93450.63;5020344;28;20048;-75
2021/12/30 04:45:44;;;;;;;2.38;2.15;;;;;;;4.57;67.17;93451.75;5008164;28;20041;-75
2021/12/30 04:48:10;;;;;;;2.83;2.28;;;;;;;4.43;67.53;93435.88;5006041;28;20348;-75
2021/12/30 04:50:38;;;;;;;2.75;2.22;;;;;;;4.45;67.24;93436.41;5006148;28;20040;-74
2021/12/30 04:53:05;;;;;;;2.53;2.10;;;;;;;4.59;67.48;93447.78;5025559;28;20053;-74
2021/12/30 04:55:31;;;;;;;2.15;1.67;;;;;;;4.60;67.02;93444.06;5016164;28;20397;-76
2021/12/30 04:57:57;;;;;;;2.25;2.08;;;;;;;4.73;66.53;93461.03;5023591;28;20041;-74
2021/12/30 05:00:22;;;;;;;7.60;2.00;;;;;;;4.72;65.91;93451.56;5014316;28;20070;-74
2021/12/30 05:05:36;;;;;;;2.22;2.00;;;;;;;4.60;66.19;93461.75;5020888;28;20087;-74
2021/12/30 05:08:02;;;;;;;3.63;1.98;;;;;;;4.67;66.07;93468.22;5026612;28;20044;-75
2021/12/30 05:10:27;;;;;;;3.08;2.42;;;;;;;4.63;66.39;93482.25;5022533;28;20040;-74
2021/12/30 05:12:53;;;;;;;2.53;1.73;;;;;;;4.52;66.29;93465.78;5017618;28;20318;-73
2021/12/30 05:15:18;;;;;;;2.33;2.13;;;;;;;4.70;66.53;93482.66;5017997;28;20073;-74
2021/12/30 05:17:44;;;;;;;2.40;2.15;;;;;;;4.78;65.81;93486.53;5020843;28;20186;-73
2021/12/30 05:20:12;;;;;;;2.60;1.85;;;;;;;4.73;65.99;93486.59;5021115;28;20051;-74
2021/12/30 05:22:38;;;;;;;2.63;2.33;;;;;;;4.65;65.08;93475.59;5020602;28;20129;-74
2021/12/30 05:25:04;;;;;;;2.85;2.22;;;;;;;4.81;65.51;93494.63;5008211;28;20049;-73
2021/12/30 05:27:30;;;;;;;2.35;2.15;;;;;;;4.74;65.65;93486.31;5027731;28;20029;-72
2021/12/30 05:29:55;;;;;;;2.50;2.03;;;;;;;4.88;65.36;93502.19;5022883;28;20021;-75
2021/12/30 05:32:21;;;;;;;3.15;2.15;;;;;;;4.90;65.67;93507.94;5018741;28;20576;-75
2021/12/30 05:34:46;;;;;;;1.85;1.75;;;;;;;4.84;65.09;93507.25;5026296;28;20048;-74
2021/12/30 05:37:11;;;;;;;2.10;1.65;;;;;;;4.92;64.47;93514.53;5022912;28;20049;-74
2021/12/30 05:39:41;;;;;;;2.78;2.10;;;;;;;4.96;64.93;93525.25;5020195;28;20028;-74
2021/12/30 05:42:07;;;;;;;4.57;1.90;;;;;;;4.92;64.11;93522.41;5020432;28;20029;-74
2021/12/30 05:44:32;;;;;;;2.47;2.10;;;;;;;4.85;64.59;93532.50;5020306;28;20032;-74
2021/12/30 05:46:58;;;;;;;3.75;3.15;;;;;;;4.83;65.15;93533.88;5024748;28;20067;-74
2021/12/30 05:49:23;;;;;;;3.05;2.17;;;;;;;4.96;65.44;93539.22;5016792;28;20547;-74
2021/12/30 05:51:50;;;;;;;4.30;3.22;;;;;;;5.08;64.87;93542.25;5020167;28;20037;-72
2021/12/30 05:54:15;;;;;;;4.32;2.40;;;;;;;5.26;64.17;93542.50;5027428;28;20493;-73
2021/12/30 05:56:41;;;;;;;4.32;2.42;;;;;;;5.41;63.62;93537.78;5024326;28;20045;-75
2021/12/30 05:59:06;;;;;;;6.60;2.90;;;;;;;5.32;62.91;93504.47;5015752;28;20080;-75
2021/12/30 06:01:32;;;;;;;5.05;3.15;;;;;;;5.41;62.37;93523.81;5020399;28;20033;-75
2021/12/30 06:03:57;;;;;;;3.75;2.65;;;;;;;5.55;62.07;93546.53;5020452;28;20037;-74
2021/12/30 06:06:24;;;;;;;4.75;3.35;;;;;;;5.53;61.74;93548.69;5018001;28;20252;-73
2021/12/30 06:08:50;;;;;;;5.60;3.58;;;;;;;5.53;62.11;93553.94;5020670;28;20077;-74
2021/12/30 06:11:16;;;;;;;3.47;2.50;;;;;;;5.57;61.82;93568.16;5007286;28;20048;-74
2021/12/30 06:13:41;;;;;;;3.13;2.30;;;;;;;5.29;62.15;93547.97;5020241;28;20041;-73
2021/12/30 06:16:07;;;;;;;4.07;2.40;;;;;;;5.46;61.85;93553.56;5009961;28;20053;-75
2021/12/30 06:18:40;;;;;;;4.15;2.53;;;;;;;5.15;62.33;93568.22;5021774;28;20029;-72
2021/12/30 06:21:06;;;;;;;4.22;2.42;;;;;;;5.08;62.94;93565.97;5024974;28;20029;-74
2021/12/30 06:23:31;;;;;;;5.95;2.67;;;;;;;5.26;62.69;93584.69;5025903;28;20405;-74
2021/12/30 06:25:56;;;;;;;3.78;2.42;;;;;;;5.17;62.46;93574.00;5023837;28;20510;-74
2021/12/30 06:28:22;;;;;;;4.15;3.63;;;;;;;5.26;62.86;93590.75;5029371;28;20420;-73
2021/12/30 06:30:47;;;;;;;4.78;2.08;;;;;;;5.33;62.42;93585.13;5022592;28;20519;-74
2021/12/30 06:33:13;;;;;;;3.38;2.50;;;;;;;5.43;61.63;93608.72;5026350;28;20040;-74
2021/12/30 06:35:38;;;;;;;5.20;3.00;;;;;;;5.46;61.95;93611.56;5025716;28;20041;-74
2021/12/30 06:38:04;;;;;;;2.40;2.20;;;;;;;5.55;61.28;93603.78;5026276;28;20174;-74
2021/12/30 06:40:30;;;;;;;4.43;2.53;;;;;;;5.56;61.41;93621.19;5026839;28;20147;-74
2021/12/30 06:42:56;;;;;;;2.42;2.10;;;;;;;5.53;61.56;93630.44;5025715;28;20098;-74
2021/12/30 06:45:21;;;;;;;2.63;2.20;;;;;;;5.70;60.79;93632.59;5013748;28;21016;-74
2021/12/30 06:47:47;;;;;;;4.65;2.38;;;;;;;5.66;60.78;93639.53;5022775;28;20090;-74
2021/12/30 06:50:15;;;;;;;3.92;2.15;;;;;;;5.72;60.89;93634.97;5028277;28;20291;-75
2021/12/30 06:52:42;;;;;;;4.53;2.65;;;;;;;5.57;60.94;93607.72;5021695;28;20064;-74
2021/12/30 06:55:09;;;;;;;3.60;2.83;;;;;;;5.56;60.33;93595.59;5028515;28;20618;-73
2021/12/30 06:57:35;;;;;;;4.57;3.03;;;;;;;5.99;60.25;93646.41;5020771;28;20033;-74
2021/12/30 07:00:01;;;;;;;5.28;4.32;;;;;;;5.99;59.29;93621.84;5028768;28;20039;-74
2021/12/30 07:02:27;;;;;;;3.60;3.05;;;;;;;6.08;59.53;93643.88;5025875;28;20044;-74
2021/12/30 07:04:52;;;;;;;5.22;2.97;;;;;;;5.93;60.12;93659.94;5022727;28;20411;-74
2021/12/30 07:07:18;;;;;;;4.10;3.22;;;;;;;6.00;59.79;93669.09;5021855;28;20037;-75
2021/12/30 07:09:43;;;;;;;4.07;3.15;;;;;;;5.94;59.71;93661.53;5019790;28;20048;-74
2021/12/30 07:12:09;;;;;;;4.88;3.30;;;;;;;6.08;59.75;93680.84;5025884;28;20029;-74
2021/12/30 07:14:34;;;;;;;7.55;3.47;;;;;;;5.58;58.09;93661.25;5022416;28;20463;-74
2021/12/30 07:16:59;;;;;;;81.88;25.58;;;;;;;5.33;57.42;93696.69;5012164;28;20392;-75
2021/12/30 07:19:25;;;;;;;13.68;5.47;;;;;;;5.41;57.60;93697.88;5027715;28;20083;-74
2021/12/30 07:21:54;;;;;;;24.00;7.35;;;;;;;5.35;57.21;93705.06;5021810;28;20063;-73
2021/12/30 07:24:23;;;;;;;5.35;2.47;;;;;;;4.69;58.74;93713.72;5014968;28;20017;-74
2021/12/30 07:26:50;;;;;;;3.42;2.30;;;;;;;4.20;59.92;93713.84;5010806;28;20039;-75
2021/12/30 07:29:15;;;;;;;4.28;2.15;;;;;;;4.71;59.51;93694.97;5026019;28;20183;-75
2021/12/30 07:31:40;;;;;;;3.47;1.58;;;;;;;4.27;59.68;93695.09;5022925;28;20045;-74
2021/12/30 07:34:06;;;;;;;3.55;2.00;;;;;;;4.59;59.67;93727.00;5024057;28;20505;-73
2021/12/30 07:36:31;;;;;;;3.72;2.15;;;;;;;5.02;58.90;93719.97;5020344;28;20048;-73
2021/12/30 07:38:57;;;;;;;4.22;2.97;;;;;;;4.91;58.30;93715.06;5026962;28;20095;-75
2021/12/30 07:41:22;;;;;;;5.22;2.45;;;;;;;5.16;58.01;93721.91;5023235;28;20516;-74
2021/12/30 07:43:47;;;;;;;6.20;2.45;;;;;;;5.47;57.57;93733.69;5026749;28;20740;-74
2021/12/30 07:46:13;;;;;;;6.00;3.13;;;;;;;5.49;57.15;93727.06;5024921;28;20064;-75
2021/12/30 07:48:39;;;;;;;5.75;3.55;;;;;;;5.59;55.91;93747.25;5019874;28;20047;-74
2021/12/30 07:51:04;;;;;;;6.30;3.63;;;;;;;5.50;56.33;93712.81;5026320;28;20393;-75
2021/12/30 07:53:30;;;;;;;3.83;3.28;;;;;;;5.86;56.29;93728.97;5025711;28;20128;-76
2021/12/30 07:55:56;;;;;;;6.45;4.40;;;;;;;6.15;56.33;93754.44;5015274;28;20393;-75
2021/12/30 07:58:22;;;;;;;7.45;4.00;;;;;;;5.73;56.33;93761.31;5025317;28;20157;-74
2021/12/30 08:00:47;;;;;;;6.65;4.00;;;;;;;5.84;56.28;93754.06;5026885;28;20132;-75
2021/12/30 08:03:12;;;;;;;4.15;2.78;;;;;;;5.73;56.31;93745.47;5025444;28;20428;-73
2021/12/30 08:05:38;;;;;;;4.35;3.17;;;;;;;5.75;56.13;93740.72;5027109;28;20064;-75
2021/12/30 08:08:04;;;;;;;5.70;2.60;;;;;;;5.89;55.87;93770.59;5020233;28;20141;-75
2021/12/30 08:10:29;;;;;;;3.38;2.92;;;;;;;5.67;56.60;93759.03;5013762;28;20579;-75
2021/12/30 08:13:04;;;;;;;3.22;2.47;;;;;;;5.54;57.18;93771.03;5026816;28;20045;-73
2021/12/30 08:15:29;;;;;;;4.00;2.35;;;;;;;4.92;57.42;93680.53;5018775;28;20042;-75
2021/12/30 08:17:55;;;;;;;4.75;2.88;;;;;;;5.75;56.97;93768.94;5026088;28;20032;-75
2021/12/30 08:20:24;;;;;;;3.05;2.35;;;;;;;5.66;56.58;93775.94;5021019;28;20048;-74
2021/12/30 08:22:51;;;;;;;6.32;3.28;;;;;;;5.52;56.53;93778.47;5029264;28;20052;-75
2021/12/30 08:25:17;;;;;;;5.60;3.00;;;;;;;4.94;56.83;93728.47;5018977;28;20048;-75
2021/12/30 08:27:44;;;;;;;3.70;2.22;;;;;;;5.80;56.53;93788.16;5022975;28;20025;-74
2021/12/30 08:30:13;;;;;;;3.83;2.47;;;;;;;5.61;56.32;93797.09;5025978;28;20025;-74
2021/12/30 08:32:39;;;;;;;6.00;4.53;;;;;;;5.38;57.04;93809.22;5028229;28;20474;-75
2021/12/30 08:35:06;;;;;;;7.68;3.55;;;;;;;4.48;58.42;93811.63;5027197;28;20049;-74
2021/12/30 08:37:33;;;;;;;6.78;3.60;;;;;;;4.52;59.59;93817.91;5026774;28;20041;-75
2021/12/30 08:40:01;;;;;;;5.85;3.50;;;;;;;4.39;59.05;93790.34;5022166;28;20049;-74
2021/12/30 08:42:28;;;;;;;5.68;2.88;;;;;;;5.11;58.26;93810.56;5005031;28;20043;-74
2021/12/30 08:44:56;;;;;;;3.75;2.75;;;;;;;5.36;56.92;93816.63;5027973;28;20037;-74
2021/12/30 08:47:22;;;;;;;7.47;4.10;;;;;;;5.19;57.54;93822.31;5023885;28;20041;-74
2021/12/30 08:49:48;;;;;;;7.28;3.28;;;;;;;5.32;57.35;93839.34;5026378;28;20219;-74
2021/12/30 08:52:16;;;;;;;6.45;3.10;;;;;;;5.78;55.95;93832.50;5022575;28;20041;-74
2021/12/30 08:54:42;;;;;;;4.10;2.70;;;;;;;5.97;55.74;93833.31;5025935;28;20469;-74
2021/12/30 08:57:07;;;;;;;4.75;2.78;;;;;;;6.17;55.60;93832.31;5018054;28;20053;-74
2021/12/30 08:59:35;;;;;;;2.22;1.80;;;;;;;6.21;55.37;93841.25;5024746;28;20809;-74
2021/12/30 09:02:01;;;;;;;3.63;2.17;;;;;;;5.70;55.12;93817.31;4998636;28;20061;-74
2021/12/30 09:04:26;;;;;;;4.38;2.25;;;;;;;5.37;55.63;93841.94;5023782;28;21607;-74
2021/12/30 09:06:53;;;;;;;3.35;2.30;;;;;;;5.30;56.24;93836.19;5022940;28;20091;-74
2021/12/30 09:09:18;;;;;;;2.67;2.40;;;;;;;4.83;57.22;93829.78;5027894;28;20052;-75
2021/12/30 09:11:45;;;;;;;3.63;2.60;;;;;;;5.18;56.52;93856.91;5018237;28;20481;-72
2021/12/30 09:14:18;;;;;;;4.47;2.80;;;;;;;4.82;56.68;93861.69;5018691;28;20033;-72
2021/12/30 09:16:43;;;;;;;5.68;3.33;;;;;;;4.87;56.82;93857.16;5016022;28;20374;-74
2021/12/30 09:19:19;;;;;;;3.60;2.80;;;;;;;5.02;57.33;93867.56;5020852;28;20040;-75
2021/12/30 09:21:45;;;;;;;5.43;2.97;;;;;;;4.94;57.09;93865.50;5004633;28;20096;-75
2021/12/30 09:24:11;;;;;;;15.82;9.02;;;;;;;5.39;56.45;93863.53;5024417;28;20552;-75
2021/12/30 09:26:38;;;;;;;3.63;2.67;;;;;;;4.46;55.07;93819.78;5015206;28;20039;-75
2021/12/30 09:29:10;;;;;;;5.03;2.63;;;;;;;4.53;56.52;93877.41;5022278;28;20489;-75
2021/12/30 09:31:45;;;;;;;2.92;2.28;;;;;;;4.73;56.84;93877.28;5017692;28;20629;-75
2021/12/30 09:34:10;;;;;;;4.35;3.40;;;;;;;4.72;56.19;93851.22;5021917;28;20037;-75
2021/12/30 09:36:36;;;;;;;5.55;2.45;;;;;;;4.79;55.95;93849.84;5017929;28;20449;-75
2021/12/30 09:39:11;;;;;;;6.13;3.10;;;;;;;4.59;56.61;93856.06;5022992;28;20341;-75
2021/12/30 09:41:39;;;;;;;7.90;4.30;;;;;;;4.81;56.75;93842.44;5005808;28;20033;-75
2021/12/30 09:44:06;;;;;;;4.85;2.53;;;;;;;4.74;56.71;93847.25;5024965;28;20160;-75
2021/12/30 09:46:32;;;;;;;4.40;2.33;;;;;;;4.93;56.62;93850.78;5016217;28;20064;-73
2021/12/30 09:48:58;;;;;;;4.35;2.67;;;;;;;4.85;56.66;93856.63;5023175;28;20152;-74
2021/12/30 09:51:23;;;;;;;5.28;3.10;;;;;;;4.87;56.39;93859.78;5027853;28;20040;-75
2021/12/30 09:53:53;;;;;;;6.20;3.33;;;;;;;4.57;57.04;93863.44;5019522;28;20033;-74
2021/12/30 09:56:19;;;;;;;8.02;4.03;;;;;;;4.27;58.28;93888.06;5005643;28;20036;-74
2021/12/30 09:58:46;;;;;;;5.05;3.28;;;;;;;3.96;58.26;93883.22;5026033;28;20501;-75
2021/12/30 10:01:11;;;;;;;4.25;2.35;;;;;;;4.16;58.45;93885.78;5022316;28;20052;-74
2021/12/30 10:03:37;;;;;;;3.58;2.60;;;;;;;3.77;58.12;93875.16;5017662;28;20021;-74
2021/12/30 10:06:07;;;;;;;2.25;2.05;;;;;;;3.59;58.36;93894.13;5007851;28;20036;-74
2021/12/30 10:08:42;;;;;;;4.90;2.75;;;;;;;3.65;59.15;93893.06;5016624;28;20604;-74
2021/12/30 10:11:14;;;;;;;2.70;2.45;;;;;;;3.61;58.99;93899.91;5017867;28;20092;-74
2021/12/30 10:13:52;;;;;;;3.25;2.85;;;;;;;3.90;59.07;93871.94;5022041;28;20903;-74
2021/12/30 10:16:18;;;;;;;4.82;2.95;;;;;;;4.39;58.11;93892.25;5020918;28;20447;-75
2021/12/30 10:18:56;;;;;;;19.85;9.13;;;;;;;4.32;57.66;93892.56;5019318;28;20037;-73
2021/12/30 10:21:40;;;;;;;24.23;10.65;;;;;;;4.67;56.88;93899.47;5023819;28;20040;-74
2021/12/30 10:24:11;;;;;;;7.65;4.38;;;;;;;4.40;56.24;93899.09;5019478;28;20069;-74
2021/12/30 10:27:07;;;;;;;5.18;3.80;;;;;;;4.03;57.37;93905.56;5011952;28;20461;-75
2021/12/30 10:29:41;;;;;;;5.35;3.35;;;;;;;4.22;57.47;93900.47;5010070;28;20053;-74
2021/12/30 10:32:17;;;;;;;3.28;2.78;;;;;;;4.14;57.38;93870.25;5023293;28;20149;-75
2021/12/30 10:35:09;;;;;;;3.70;2.35;;;;;;;4.45;56.44;93897.25;5022380;28;20183;-75
2021/12/30 10:37:36;;;;;;;2.85;2.40;;;;;;;4.95;56.21;93872.38;5022782;28;20037;-75
2021/12/30 10:40:03;;;;;;;6.20;2.85;;;;;;;5.03;55.20;93887.59;5011349;28;20553;-75
2021/12/30 10:42:31;;;;;;;4.28;2.55;;;;;;;4.54;55.30;93900.06;5024902;28;20992;-74
2021/12/30 10:44:57;;;;;;;3.05;2.75;;;;;;;4.48;55.87;93903.78;5024737;28;20108;-75
2021/12/30 10:47:31;;;;;;;4.72;2.70;;;;;;;4.36;56.32;93905.94;5022545;28;20045;-75
2021/12/30 10:50:08;;;;;;;3.67;2.47;;;;;;;3.94;56.80;93907.19;5023392;28;20087;-74
2021/12/30 10:52:44;;;;;;;4.30;3.13;;;;;;;3.99;57.58;93903.75;5014683;28;20284;-75
2021/12/30 10:55:11;;;;;;;;;;;;;;;3.87;57.83;93904.03;5020204;28;20103;-74
2021/12/30 10:57:36;;;;;;;2.95;2.45;;;;;;;4.00;57.15;93885.06;5023534;28;20295;-74
2021/12/30 11:00:09;;;;;;;4.90;3.35;;;;;;;4.42;56.85;93904.88;5022361;28;20022;-73
2021/12/30 11:02:36;;;;;;;5.95;2.45;;;;;;;4.77;56.18;93901.22;5022712;28;20086;-75
2021/12/30 11:05:09;;;;;;;3.10;2.15;;;;;;;5.38;55.27;93893.63;5024308;28;20037;-74
2021/12/30 11:07:49;;;;;;;2.60;1.77;;;;;;;5.44;54.79;93909.13;5028807;28;20128;-75
2021/12/30 11:10:16;;;;;;;2.97;2.08;;;;;;;4.85;54.55;93906.69;5025218;28;20045;-74
2021/12/30 11:12:45;;;;;;;2.78;2.28;;;;;;;5.05;54.62;93901.28;5024315;28;20033;-75
2021/12/30 11:15:20;;;;;;;3.15;2.35;;;;;;;5.24;53.30;93908.50;5023982;28;20029;-74
2021/12/30 11:17:48;;;;;;;3.67;2.20;;;;;;;5.34;53.53;93918.97;5026499;28;20099;-74
2021/12/30 11:20:20;;;;;;;10.35;2.78;;;;;;;4.93;53.13;93911.41;5023941;28;20497;-74
2021/12/30 11:22:48;;;;;;;37.80;13.90;;;;;;;5.28;52.64;93891.09;5010258;28;20044;-75
2021/12/30 11:25:17;;;;;;;7.35;4.28;;;;;;;5.50;53.24;93928.31;5023604;28;20258;-75
2021/12/30 11:27:43;;;;;;;3.75;2.40;;;;;;;5.34;52.63;93916.31;5025102;28;20032;-74
2021/12/30 11:30:16;;;;;;;4.43;2.80;;;;;;;5.32;52.53;93937.72;5030595;28;20033;-74
2021/12/30 11:32:46;;;;;;;5.35;2.72;;;;;;;4.93;52.80;93942.25;5024184;28;20052;-74
2021/12/30 11:35:12;;;;;;;3.30;2.72;;;;;;;5.02;52.73;93938.75;5026994;28;20034;-74
2021/12/30 11:37:37;;;;;;;5.35;2.53;;;;;;;5.65;52.95;93946.66;5021374;28;20664;-75
2021/12/30 11:40:11;;;;;;;5.28;2.85;;;;;;;5.67;53.06;93944.53;5011658;28;20086;-74
2021/12/30 11:42:40;;;;;;;6.93;2.78;;;;;;;5.96;52.24;93942.66;5026848;28;20028;-73
2021/12/30 11:45:26;;;;;;;6.15;2.42;;;;;;;6.27;52.25;93937.81;5026994;28;20035;-76